Time;durP1;ratioP1;P1;durP2;ratioP2;P2;SDS_P1;SDS_P2;PMS_P1;PMS_P2;Temp;Humidity;BMP_temperature;BMP_pressure;BME280_temperature;BME280_humidity;BME280_pressure;Samples;Min_cycle;Max_cycle;Signal;HPM_P1;HPM_P2
2021/05/15 00:01:38;;;;;;;2.00;0.80;;;;;;;12.71;60.79;98211.75;5139189;27;43215;-77
2021/05/15 00:04:06;;;;;;;0.87;0.70;;;;;;;12.68;60.96;98212.00;5145478;27;42509;-77
2021/05/15 00:06:34;;;;;;;0.70;0.70;;;;;;;12.64;61.18;98210.53;5095558;28;39866;-77
2021/05/15 00:09:02;;;;;;;0.87;0.60;;;;;;;12.57;61.37;98205.75;5124906;27;40807;-76
2021/05/15 00:11:29;;;;;;;1.40;0.60;;;;;;;12.57;61.24;98213.72;5109093;28;42466;-78
2021/05/15 00:13:56;;;;;;;0.93;0.60;;;;;;;12.56;61.10;98209.38;5110778;28;42266;-76
2021/05/15 00:16:23;;;;;;;1.27;0.60;;;;;;;12.56;61.50;98203.22;5111811;27;40755;-78
2021/05/15 00:18:51;;;;;;;1.43;0.60;;;;;;;12.29;60.82;98160.28;5111386;28;40630;-77
2021/05/15 00:21:18;;;;;;;0.70;0.70;;;;;;;12.54;61.41;98200.66;5093808;28;41515;-76
2021/05/15 00:23:45;;;;;;;1.10;0.50;;;;;;;12.51;61.46;98200.91;5109846;28;42253;-79
2021/05/15 00:26:14;;;;;;;0.77;0.57;;;;;;;12.44;61.42;98199.72;5111104;28;39982;-76
2021/05/15 00:28:42;;;;;;;0.60;0.50;;;;;;;12.37;62.19;98193.22;5112197;27;41787;-76
2021/05/15 00:31:09;;;;;;;0.67;0.60;;;;;;;12.33;62.18;98196.25;5110179;28;42243;-76
2021/05/15 00:33:37;;;;;;;0.60;0.60;;;;;;;12.29;62.09;98206.25;5111436;28;42353;-78
2021/05/15 00:36:05;;;;;;;0.70;0.70;;;;;;;12.25;62.07;98207.47;5110865;28;39996;-78
2021/05/15 00:38:32;;;;;;;2.90;0.83;;;;;;;12.17;62.48;98186.00;5111112;27;41570;-77
2021/05/15 00:40:59;;;;;;;0.80;0.80;;;;;;;12.23;62.39;98206.78;5110085;28;42406;-78
2021/05/15 00:43:28;;;;;;;0.57;0.53;;;;;;;12.22;62.25;98210.38;5094641;28;41208;-79
2021/05/15 00:45:57;;;;;;;0.80;0.57;;;;;;;12.21;62.04;98204.22;5111794;27;40554;-78
2021/05/15 00:48:24;;;;;;;0.63;0.60;;;;;;;12.16;62.31;98197.59;5090966;28;41934;-77
2021/05/15 00:50:53;;;;;;;1.30;0.70;;;;;;;12.20;62.67;98204.34;5092611;28;42594;-76
2021/05/15 00:53:20;;;;;;;1.50;0.70;;;;;;;12.17;62.72;98207.25;5091713;28;41134;-79
2021/05/15 00:55:48;;;;;;;0.93;0.70;;;;;;;12.15;62.83;98201.19;5106892;28;39523;-77
2021/05/15 00:58:15;;;;;;;0.73;0.73;;;;;;;12.17;63.50;98201.94;5110222;28;42399;-78
2021/05/15 01:00:43;;;;;;;0.70;0.40;;;;;;;12.05;63.02;98184.31;5093771;28;42175;-77
2021/05/15 01:03:10;;;;;;;0.60;0.60;;;;;;;12.13;63.65;98189.84;5107743;28;42409;-76
2021/05/15 01:05:37;;;;;;;0.80;0.60;;;;;;;12.17;63.11;98196.63;5109828;28;41021;-76
2021/05/15 01:08:05;;;;;;;1.03;0.83;;;;;;;12.22;63.85;98202.41;5108973;28;41754;-77
2021/05/15 01:10:32;;;;;;;1.60;0.70;;;;;;;12.16;63.93;98179.00;5111579;27;42580;-76
2021/05/15 01:12:59;;;;;;;1.00;0.67;;;;;;;12.26;63.69;98195.88;5092685;28;41556;-75
2021/05/15 01:15:28;;;;;;;1.60;0.83;;;;;;;12.26;63.56;98200.34;5109997;28;40400;-77
2021/05/15 01:17:58;;;;;;;1.33;0.80;;;;;;;12.29;63.69;98197.44;5108670;28;42429;-77
2021/05/15 01:20:27;;;;;;;0.67;0.67;;;;;;;12.29;63.65;98200.97;5110157;28;42037;-77
2021/05/15 01:22:56;;;;;;;0.60;0.60;;;;;;;12.31;63.37;98203.50;5109230;28;42472;-77
2021/05/15 01:25:23;;;;;;;2.07;0.80;;;;;;;12.00;63.55;98157.28;5113762;28;40667;-76
2021/05/15 01:27:50;;;;;;;0.77;0.50;;;;;;;12.23;63.93;98207.63;5120870;28;42975;-76
2021/05/15 01:30:20;;;;;;;1.40;0.70;;;;;;;12.18;64.17;98204.47;5122624;28;43397;-75
2021/05/15 01:32:48;;;;;;;2.90;0.90;;;;;;;12.14;63.88;98212.78;5122440;28;41226;-76
2021/05/15 01:35:17;;;;;;;1.03;0.70;;;;;;;12.10;64.18;98200.75;5125210;28;39169;-75
2021/05/15 01:37:44;;;;;;;1.50;0.80;;;;;;;12.06;64.22;98207.25;5124493;27;42196;-75
2021/05/15 01:40:14;;;;;;;0.73;0.57;;;;;;;12.02;64.59;98206.63;5120000;28;42917;-77
2021/05/15 01:42:42;;;;;;;0.70;0.70;;;;;;;11.94;64.42;98205.56;5111384;28;41058;-77
2021/05/15 01:45:10;;;;;;;0.77;0.60;;;;;;;11.91;64.66;98206.63;5094052;28;39250;-78
2021/05/15 01:47:38;;;;;;;0.77;0.60;;;;;;;11.94;64.73;98218.81;5112806;27;41651;-75
2021/05/15 01:50:08;;;;;;;0.67;0.60;;;;;;;11.87;64.85;98205.19;5111589;27;43513;-76
2021/05/15 01:52:35;;;;;;;1.50;0.90;;;;;;;11.90;64.51;98214.72;5108842;28;42943;-77
2021/05/15 01:55:06;;;;;;;0.70;0.60;;;;;;;11.86;65.11;98212.31;5109997;28;40937;-76
2021/05/15 01:57:35;;;;;;;1.40;0.67;;;;;;;11.84;65.13;98208.94;5109639;28;42105;-76
2021/05/15 02:00:03;;;;;;;0.80;0.67;;;;;;;11.81;65.08;98201.22;5109742;28;42625;-76
2021/05/15 02:02:39;;;;;;;0.97;0.60;;;;;;;11.78;65.07;98205.91;5109324;28;42685;-78
2021/05/15 02:05:07;;;;;;;0.83;0.70;;;;;;;11.82;65.14;98205.56;5109785;28;39868;-76
2021/05/15 02:07:34;;;;;;;1.27;0.80;;;;;;;11.81;65.28;98200.38;5109364;28;41606;-76
2021/05/15 02:10:02;;;;;;;0.97;0.60;;;;;;;11.80;65.69;98206.63;5109407;28;42480;-75
2021/05/15 02:12:29;;;;;;;1.07;0.77;;;;;;;11.69;65.65;98191.53;5108596;27;42882;-75
2021/05/15 02:14:57;;;;;;;0.70;0.50;;;;;;;11.79;65.43;98205.78;5110261;28;40671;-77
2021/05/15 02:17:24;;;;;;;0.57;0.57;;;;;;;11.79;65.27;98200.47;5109183;28;41219;-76
2021/05/15 02:19:51;;;;;;;1.13;0.87;;;;;;;11.75;65.94;98196.38;5107383;28;42582;-77
2021/05/15 02:22:18;;;;;;;0.50;0.50;;;;;;;11.78;65.76;98196.13;5109585;28;41859;-76
2021/05/15 02:24:46;;;;;;;1.60;0.70;;;;;;;11.78;66.18;98195.28;5108675;28;40736;-75
2021/05/15 02:27:13;;;;;;;0.70;0.70;;;;;;;11.76;66.54;98198.06;5109837;27;41650;-76
2021/05/15 02:29:40;;;;;;;1.07;0.83;;;;;;;11.77;66.39;98193.59;5109332;28;42791;-75
2021/05/15 02:32:08;;;;;;;0.63;0.63;;;;;;;11.76;66.21;98198.06;5109899;27;42216;-77
2021/05/15 02:34:35;;;;;;;2.43;1.00;;;;;;;11.74;65.93;98186.72;5091152;28;39035;-75
2021/05/15 02:37:03;;;;;;;0.97;0.87;;;;;;;11.74;66.10;98199.97;5110477;27;42412;-76
2021/05/15 02:39:30;;;;;;;0.80;0.77;;;;;;;11.74;66.26;98199.97;5092359;28;42411;-76
2021/05/15 02:41:57;;;;;;;0.80;0.70;;;;;;;11.73;65.84;98200.94;5110591;27;41124;-75
2021/05/15 02:44:24;;;;;;;1.50;0.67;;;;;;;11.69;66.16;98204.78;5072723;28;39834;-74
2021/05/15 02:46:51;;;;;;;1.10;0.67;;;;;;;11.68;66.07;98199.59;5112827;27;41622;-77
2021/05/15 02:49:19;;;;;;;2.73;0.90;;;;;;;11.65;66.68;98191.88;5090328;28;44248;-76
2021/05/15 02:51:46;;;;;;;0.63;0.63;;;;;;;11.55;66.24;98186.44;5108767;28;42118;-75
2021/05/15 02:54:13;;;;;;;1.47;0.90;;;;;;;11.58;66.35;98199.47;5107591;28;39902;-77
2021/05/15 02:56:41;;;;;;;0.70;0.70;;;;;;;11.51;66.34;98193.78;5109218;27;41490;-77
2021/05/15 02:59:09;;;;;;;2.20;0.70;;;;;;;11.45;66.74;98194.25;5108974;28;20336;-75
2021/05/15 03:01:36;;;;;;;0.63;0.63;;;;;;;11.39;67.04;98188.56;5107904;28;41935;-76
2021/05/15 03:04:03;;;;;;;1.30;0.80;;;;;;;11.30;67.06;98183.97;5108240;28;40435;-77
2021/05/15 03:06:31;;;;;;;1.20;1.00;;;;;;;11.21;67.45;98179.38;5110329;27;40872;-76
2021/05/15 03:08:58;;;;;;;2.97;0.80;;;;;;;11.16;67.93;98177.06;5087960;28;41615;-77
2021/05/15 03:11:25;;;;;;;1.67;1.00;;;;;;;11.09;68.00;98182.00;5104478;28;42304;-75
2021/05/15 03:13:52;;;;;;;0.90;0.77;;;;;;;11.02;68.06;98178.09;5091820;28;39344;-77
2021/05/15 03:16:19;;;;;;;1.17;1.00;;;;;;;10.91;68.01;98172.75;5108776;28;42541;-78
2021/05/15 03:18:46;;;;;;;1.63;1.10;;;;;;;10.91;68.21;98183.34;5109272;27;42643;-76
2021/05/15 03:21:13;;;;;;;1.80;1.10;;;;;;;10.86;68.54;98179.38;5109400;27;43000;-79
2021/05/15 03:23:41;;;;;;;1.67;1.00;;;;;;;10.82;68.36;98185.84;5108927;27;40043;-77
2021/05/15 03:26:09;;;;;;;1.53;1.30;;;;;;;10.77;68.49;98175.59;5107942;28;42398;-77
2021/05/15 03:28:36;;;;;;;1.00;0.90;;;;;;;10.72;68.70;98183.03;5089547;28;42141;-77
2021/05/15 03:31:03;;;;;;;1.70;0.90;;;;;;;10.67;68.74;98180.72;5109068;27;43041;-77
2021/05/15 03:33:30;;;;;;;1.53;1.20;;;;;;;10.61;69.43;98175.06;5108512;27;41495;-77
2021/05/15 03:35:57;;;;;;;1.27;1.10;;;;;;;10.59;69.34;98182.25;5107932;28;42416;-77
2021/05/15 03:38:24;;;;;;;1.57;1.10;;;;;;;10.53;70.23;98177.41;5109681;27;43382;-77
2021/05/15 03:40:52;;;;;;;2.17;1.30;;;;;;;10.50;69.96;98177.66;5105010;28;43110;-77
2021/05/15 03:43:19;;;;;;;1.40;1.30;;;;;;;10.48;69.89;98183.03;5108823;28;39094;-77
2021/05/15 03:45:47;;;;;;;1.60;1.43;;;;;;;10.46;70.29;98182.31;5108228;28;40980;-75
2021/05/15 03:48:19;;;;;;;1.20;1.10;;;;;;;10.46;70.55;98181.47;5107048;28;42842;-76
2021/05/15 03:50:47;;;;;;;1.43;1.27;;;;;;;10.44;70.67;98182.41;5091433;28;42298;-76
2021/05/15 03:53:15;;;;;;;1.20;1.10;;;;;;;10.44;70.38;98185.06;5105992;28;40803;-76
2021/05/15 03:55:42;;;;;;;1.57;1.47;;;;;;;10.45;70.62;98177.97;5090467;28;40848;-75
2021/05/15 03:58:11;;;;;;;1.03;0.93;;;;;;;10.27;70.16;98151.03;5107296;28;43468;-77
2021/05/15 04:00:38;;;;;;;1.40;1.30;;;;;;;10.46;70.48;98184.09;5107977;28;42207;-78
2021/05/15 04:03:05;;;;;;;1.53;1.30;;;;;;;10.42;70.31;98181.69;5106642;28;39944;-77
2021/05/15 04:05:32;;;;;;;2.43;1.40;;;;;;;10.47;70.38;98183.16;5108309;28;41465;-76
2021/05/15 04:07:59;;;;;;;1.90;1.20;;;;;;;10.37;70.25;98170.59;5106690;28;42745;-77
2021/05/15 04:10:27;;;;;;;2.77;1.27;;;;;;;10.49;70.57;98187.38;5106872;28;42227;-76
2021/05/15 04:13:03;;;;;;;1.40;1.30;;;;;;;10.53;70.37;98187.97;5107587;28;39627;-75
2021/05/15 04:15:37;;;;;;;1.03;0.93;;;;;;;10.44;70.53;98185.06;5107216;28;41571;-78
2021/05/15 04:18:06;;;;;;;1.50;1.07;;;;;;;10.59;70.36;98192.84;5089886;28;41839;-77
2021/05/15 04:20:34;;;;;;;2.20;1.00;;;;;;;10.60;70.23;98197.19;5107523;28;42922;-78
2021/05/15 04:23:01;;;;;;;1.77;1.60;;;;;;;10.58;70.13;98186.72;5107802;28;39280;-78
2021/05/15 04:25:28;;;;;;;1.37;1.10;;;;;;;10.52;70.30;98175.69;5108159;27;41840;-76
2021/05/15 04:27:56;;;;;;;1.43;1.20;;;;;;;10.61;70.28;98197.09;5108378;27;42756;-76
2021/05/15 04:30:25;;;;;;;1.63;1.43;;;;;;;10.68;70.56;98200.09;5108148;28;42079;-76
2021/05/15 04:32:54;;;;;;;2.20;1.43;;;;;;;10.76;71.10;98190.63;5106403;28;38977;-76
2021/05/15 04:35:22;;;;;;;1.83;1.20;;;;;;;10.85;70.73;98189.13;5110606;27;41660;-78
2021/05/15 04:37:50;;;;;;;1.70;1.27;;;;;;;11.01;70.45;98197.59;5089064;28;41852;-79
2021/05/15 04:40:17;;;;;;;2.00;1.20;;;;;;;11.15;70.24;98189.47;5092378;28;42803;-76
2021/05/15 04:42:45;;;;;;;1.73;1.50;;;;;;;11.22;69.60;98187.22;5091134;28;39112;-75
2021/05/15 04:45:15;;;;;;;2.63;1.30;;;;;;;11.33;70.04;98199.66;5103412;28;42905;-78
2021/05/15 04:47:42;;;;;;;1.83;1.17;;;;;;;11.31;69.79;98196.25;5110714;28;43212;-79
2021/05/15 04:50:11;;;;;;;1.13;1.00;;;;;;;11.29;69.67;98192.88;5111192;27;42950;-76
2021/05/15 04:52:38;;;;;;;1.40;1.00;;;;;;;11.41;68.98;98202.56;5110292;28;39073;-76
2021/05/15 04:55:07;;;;;;;3.83;1.10;;;;;;;11.52;69.25;98199.91;5110618;27;41391;-76
2021/05/15 04:57:35;;;;;;;1.70;0.87;;;;;;;11.64;69.23;98193.66;5111454;27;42837;-77
2021/05/15 05:00:02;;;;;;;2.03;0.90;;;;;;;11.67;68.51;98197.91;5111609;27;42276;-76
2021/05/15 05:02:29;;;;;;;1.30;1.00;;;;;;;11.80;68.31;98204.81;5111572;27;40649;-77
2021/05/15 05:04:56;;;;;;;1.10;1.03;;;;;;;11.91;68.00;98213.75;5111164;28;40705;-76
2021/05/15 05:07:24;;;;;;;2.03;1.00;;;;;;;12.13;67.45;98213.75;5110399;27;42751;-76
2021/05/15 05:09:51;;;;;;;1.27;1.17;;;;;;;12.33;67.11;98213.03;5112001;27;42304;-76
2021/05/15 05:12:18;;;;;;;1.13;1.03;;;;;;;12.46;66.66;98219.03;5110459;28;40066;-77
2021/05/15 05:14:46;;;;;;;1.33;1.10;;;;;;;12.43;66.10;98213.97;5109633;28;41606;-76
2021/05/15 05:17:13;;;;;;;0.93;0.93;;;;;;;12.40;66.31;98211.56;5093130;28;41809;-76
2021/05/15 05:19:40;;;;;;;1.97;1.20;;;;;;;12.36;65.88;98218.09;5111342;27;42307;-76
2021/05/15 05:22:07;;;;;;;1.20;1.10;;;;;;;12.27;65.78;98218.81;5109622;28;39859;-76
2021/05/15 05:24:35;;;;;;;2.30;1.10;;;;;;;12.32;65.83;98206.03;5089661;28;41574;-77
2021/05/15 05:27:02;;;;;;;0.93;0.90;;;;;;;12.38;65.75;98208.19;5091784;28;42774;-77
2021/05/15 05:29:30;;;;;;;2.90;1.20;;;;;;;12.48;65.60;98203.84;5093024;28;40957;-77
2021/05/15 05:31:57;;;;;;;1.27;1.00;;;;;;;12.60;65.14;98215.28;5110807;27;39890;-76
2021/05/15 05:34:24;;;;;;;1.27;0.90;;;;;;;12.70;65.16;98213.56;5127241;27;40887;-76
2021/05/15 05:36:52;;;;;;;1.30;1.03;;;;;;;12.60;64.51;98183.41;5109108;28;42716;-76
2021/05/15 05:39:20;;;;;;;1.53;1.00;;;;;;;13.14;64.32;98215.25;5109077;28;42204;-76
2021/05/15 05:41:48;;;;;;;1.10;1.00;;;;;;;13.46;63.19;98219.69;5110924;28;38935;-76
2021/05/15 05:44:16;;;;;;;1.13;0.90;;;;;;;13.69;62.28;98221.25;5109674;28;40809;-77
2021/05/15 05:46:43;;;;;;;0.93;0.90;;;;;;;13.91;61.58;98231.72;5109315;27;43503;-76
2021/05/15 05:49:10;;;;;;;1.10;1.10;;;;;;;13.97;60.75;98231.19;5109244;28;42288;-77
2021/05/15 05:51:37;;;;;;;2.00;1.10;;;;;;;13.99;60.02;98231.91;5110053;28;40784;-77
2021/05/15 05:54:05;;;;;;;1.20;1.03;;;;;;;14.07;60.00;98233.09;5108375;28;40736;-78
2021/05/15 05:56:32;;;;;;;2.80;1.20;;;;;;;14.14;59.85;98229.75;5110239;28;43264;-76
2021/05/15 05:59:00;;;;;;;1.50;1.40;;;;;;;14.22;59.32;98232.56;5110072;27;42215;-76
2021/05/15 06:01:27;;;;;;;0.87;0.87;;;;;;;14.28;58.87;98237.38;5109092;28;42033;-78
2021/05/15 06:03:54;;;;;;;1.20;1.07;;;;;;;14.43;58.49;98231.72;5086152;28;40742;-76
2021/05/15 06:06:21;;;;;;;1.10;1.00;;;;;;;14.45;57.07;98219.09;5090969;28;42471;-76
2021/05/15 06:08:48;;;;;;;1.73;1.17;;;;;;;14.59;56.85;98232.03;5108044;28;41404;-77
2021/05/15 06:11:16;;;;;;;1.00;0.90;;;;;;;14.72;56.71;98230.81;5107897;28;40766;-77
2021/05/15 06:13:43;;;;;;;1.80;1.03;;;;;;;14.80;56.60;98223.97;5106962;28;40559;-77
2021/05/15 06:16:11;;;;;;;1.63;1.00;;;;;;;14.88;56.27;98226.75;5108783;28;43734;-75
2021/05/15 06:18:38;;;;;;;2.47;1.30;;;;;;;15.18;56.21;98220.50;5108090;28;42084;-76
2021/05/15 06:21:05;;;;;;;2.17;1.20;;;;;;;15.45;54.84;98226.78;5091441;28;39210;-77
2021/05/15 06:23:32;;;;;;;1.00;0.87;;;;;;;15.57;55.31;98224.84;5110254;27;41770;-76
2021/05/15 06:26:00;;;;;;;0.97;0.93;;;;;;;15.61;54.52;98220.06;5108463;28;41807;-77
2021/05/15 06:28:27;;;;;;;1.17;1.03;;;;;;;15.68;54.99;98221.19;5091726;28;41598;-78
2021/05/15 06:30:54;;;;;;;3.10;1.00;;;;;;;15.73;54.91;98213.56;5088120;28;38349;-77
2021/05/15 06:33:22;;;;;;;0.87;0.80;;;;;;;15.67;53.91;98208.81;5108806;28;42474;-76
2021/05/15 06:35:49;;;;;;;5.87;4.47;;;;;;;15.82;54.50;98218.06;5108462;28;41805;-77
2021/05/15 06:38:22;;;;;;;1.53;1.30;;;;;;;16.03;53.90;98216.03;5116025;27;42797;-77
2021/05/15 06:40:49;;;;;;;1.63;1.00;;;;;;;16.34;53.57;98213.94;5097368;28;38814;-78
2021/05/15 06:43:17;;;;;;;1.73;1.10;;;;;;;16.80;52.46;98210.34;5109102;28;40506;-78
2021/05/15 06:45:44;;;;;;;0.90;0.80;;;;;;;17.38;51.68;98215.25;5109554;28;43507;-77
2021/05/15 06:48:11;;;;;;;0.97;0.80;;;;;;;18.20;49.35;98228.25;5108714;28;42633;-77
2021/05/15 06:50:40;;;;;;;1.10;1.00;;;;;;;18.61;47.75;98233.84;5092597;28;39805;-78
2021/05/15 06:53:07;;;;;;;0.80;0.80;;;;;;;18.78;47.56;98235.59;5108427;28;40760;-76
2021/05/15 06:55:35;;;;;;;1.20;0.90;;;;;;;18.80;47.97;98235.41;5108583;28;42485;-78
2021/05/15 06:58:06;;;;;;;0.87;0.70;;;;;;;18.79;47.33;98231.88;5109602;27;41922;-76
2021/05/15 07:00:34;;;;;;;2.50;1.00;;;;;;;19.00;46.26;98242.19;5109009;28;40777;-77
2021/05/15 07:03:01;;;;;;;1.13;0.80;;;;;;;19.28;46.27;98230.16;5108742;28;42198;-77
2021/05/15 07:05:28;;;;;;;1.13;0.80;;;;;;;19.37;45.36;98245.28;5091853;28;42391;-78
2021/05/15 07:07:56;;;;;;;1.73;1.00;;;;;;;19.52;44.59;98253.56;5141782;27;42923;-78
2021/05/15 07:10:23;;;;;;;0.60;0.53;;;;;;;19.57;45.06;98235.06;5109712;27;39761;-77
2021/05/15 07:12:50;;;;;;;0.97;0.63;;;;;;;19.35;44.95;98238.38;5093053;27;41695;-77
2021/05/15 07:15:19;;;;;;;0.80;0.80;;;;;;;18.90;45.83;98234.28;5089846;28;42763;-77
2021/05/15 07:17:47;;;;;;;1.03;0.70;;;;;;;18.41;45.65;98235.91;5088331;28;42891;-77
2021/05/15 07:20:15;;;;;;;0.80;0.80;;;;;;;18.07;46.52;98227.81;5088390;28;39926;-77
2021/05/15 07:22:42;;;;;;;1.30;1.20;;;;;;;17.92;47.08;98224.91;5089113;28;42203;-77
2021/05/15 07:25:12;;;;;;;0.97;0.80;;;;;;;18.02;47.04;98219.44;5087354;28;42760;-78
2021/05/15 07:27:39;;;;;;;0.70;0.70;;;;;;;19.24;45.55;98217.22;5087290;28;42935;-78
2021/05/15 07:30:08;;;;;;;2.50;0.90;;;;;;;19.24;44.47;98222.59;5121914;27;39967;-77
2021/05/15 07:32:35;;;;;;;1.43;1.00;;;;;;;19.26;44.79;98225.97;5093671;28;42636;-77
2021/05/15 07:35:03;;;;;;;2.43;2.23;;;;;;;19.04;44.30;98226.59;5091073;28;42630;-78
2021/05/15 07:37:30;;;;;;;1.40;0.80;;;;;;;18.88;45.14;98222.03;5108657;27;42045;-78
2021/05/15 07:39:57;;;;;;;2.63;0.70;;;;;;;18.79;45.19;98215.78;5125107;27;40350;-78
2021/05/15 07:42:25;;;;;;;2.17;0.70;;;;;;;18.69;45.01;98184.75;5091778;28;41176;-77
2021/05/15 07:44:56;;;;;;;1.63;0.90;;;;;;;19.10;43.85;98223.25;5109055;27;43499;-77
2021/05/15 07:47:25;;;;;;;0.63;0.63;;;;;;;19.62;44.10;98222.00;5109420;27;42178;-78
2021/05/15 07:49:52;;;;;;;0.90;0.73;;;;;;;20.13;42.45;98222.59;5109639;27;40149;-76
2021/05/15 07:52:19;;;;;;;1.53;0.60;;;;;;;20.40;42.67;98221.34;5107628;28;41074;-76
2021/05/15 07:54:46;;;;;;;1.33;0.80;;;;;;;20.37;41.71;98221.72;5090758;28;41656;-77
2021/05/15 07:57:13;;;;;;;2.60;1.00;;;;;;;20.14;41.73;98221.59;5089544;28;42430;-77
2021/05/15 07:59:41;;;;;;;0.70;0.70;;;;;;;19.80;42.51;98196.78;5088833;28;38978;-76
2021/05/15 08:02:08;;;;;;;1.73;0.60;;;;;;;19.83;43.52;98210.72;5107529;28;42995;-76
2021/05/15 08:04:36;;;;;;;0.80;0.70;;;;;;;19.67;43.09;98214.25;5107307;28;43491;-76
2021/05/15 08:07:03;;;;;;;1.27;0.70;;;;;;;19.56;43.79;98200.31;5090630;28;41332;-76
2021/05/15 08:09:30;;;;;;;0.97;0.70;;;;;;;19.47;42.83;98217.41;5107899;28;38984;-78
2021/05/15 08:11:58;;;;;;;1.53;0.80;;;;;;;19.66;43.43;98204.50;5110587;27;42580;-76
2021/05/15 08:14:25;;;;;;;1.97;0.83;;;;;;;19.90;43.59;98208.19;5110479;28;42842;-77
2021/05/15 08:16:53;;;;;;;1.67;0.90;;;;;;;19.86;42.93;98206.84;5113005;27;42909;-76
2021/05/15 08:19:20;;;;;;;0.80;0.80;;;;;;;19.88;43.59;98212.91;5111354;27;39556;-77
2021/05/15 08:21:47;;;;;;;1.67;0.97;;;;;;;19.85;43.26;98214.06;5112274;27;41690;-78
2021/05/15 08:24:15;;;;;;;1.67;0.90;;;;;;;19.72;43.74;98211.91;5110031;28;41920;-76
2021/05/15 08:26:44;;;;;;;1.50;1.00;;;;;;;19.62;43.99;98211.25;5109495;28;41256;-77
2021/05/15 08:29:13;;;;;;;1.47;0.70;;;;;;;19.55;43.87;98207.53;5093907;28;41743;-75
2021/05/15 08:31:41;;;;;;;1.00;0.90;;;;;;;19.36;43.81;98211.38;5128667;27;41746;-78
2021/05/15 08:34:09;;;;;;;0.97;0.93;;;;;;;19.11;44.03;98196.25;5111176;28;41589;-76
2021/05/15 08:36:36;;;;;;;1.77;1.13;;;;;;;19.04;44.36;98197.91;5093895;28;42210;-77
2021/05/15 08:39:05;;;;;;;1.73;0.63;;;;;;;19.09;45.00;98182.16;5090256;28;38878;-78
2021/05/15 08:41:33;;;;;;;1.53;1.03;;;;;;;19.12;43.85;98205.13;5091413;28;41815;-78
2021/05/15 08:44:02;;;;;;;1.00;0.80;;;;;;;18.97;43.55;98205.78;5073254;28;41810;-76
2021/05/15 08:46:30;;;;;;;1.07;0.70;;;;;;;18.81;43.79;98186.94;5103674;28;43121;-77
2021/05/15 08:48:59;;;;;;;1.63;0.70;;;;;;;18.79;45.00;98186.28;5111045;28;39851;-77
2021/05/15 08:51:27;;;;;;;2.63;0.80;;;;;;;18.71;45.06;98172.84;5112084;27;47398;-76
2021/05/15 08:53:57;;;;;;;0.50;0.50;;;;;;;18.72;44.27;98196.00;5093560;28;42017;-77
2021/05/15 08:56:25;;;;;;;0.87;0.60;;;;;;;18.67;44.82;98188.41;5109100;28;41315;-77
2021/05/15 08:58:52;;;;;;;1.97;0.70;;;;;;;18.72;45.26;98190.63;5111103;28;39898;-77
2021/05/15 09:01:22;;;;;;;1.80;0.90;;;;;;;18.62;44.88;98173.84;5107391;27;41521;-75
2021/05/15 09:03:49;;;;;;;2.30;1.00;;;;;;;18.82;44.44;98191.31;5090108;28;43465;-76
2021/05/15 09:06:17;;;;;;;0.97;0.63;;;;;;;18.87;43.82;98193.53;5089753;28;42030;-77
2021/05/15 09:08:48;;;;;;;1.90;0.87;;;;;;;18.95;44.57;98175.59;5090609;28;38969;-78
2021/05/15 09:11:16;;;;;;;0.90;0.60;;;;;;;19.10;44.50;98173.09;5088744;28;40869;-78
2021/05/15 09:13:51;;;;;;;1.40;0.80;;;;;;;19.23;43.60;98188.72;5072129;28;41412;-76
2021/05/15 09:16:18;;;;;;;1.23;0.83;;;;;;;19.28;43.66;98183.69;5090296;28;42969;-76
2021/05/15 09:18:45;;;;;;;0.60;0.60;;;;;;;19.61;44.31;98177.34;5090616;28;41603;-77
2021/05/15 09:21:15;;;;;;;0.60;0.60;;;;;;;19.77;44.72;98164.91;5091088;28;41639;-78
2021/05/15 09:23:45;;;;;;;0.87;0.63;;;;;;;19.80;44.92;98170.75;5089224;28;41804;-77
2021/05/15 09:26:16;;;;;;;0.97;0.77;;;;;;;19.65;44.55;98165.25;5091861;28;41891;-77
2021/05/15 09:28:45;;;;;;;0.80;0.70;;;;;;;19.73;44.58;98162.53;5110807;27;39825;-77
2021/05/15 09:31:16;;;;;;;1.50;0.80;;;;;;;20.01;44.13;98154.94;5093857;28;40621;-78
2021/05/15 09:33:45;;;;;;;0.70;0.70;;;;;;;20.86;42.75;98157.75;5111477;27;42772;-78
2021/05/15 09:36:14;;;;;;;0.93;0.67;;;;;;;21.87;40.15;98173.63;5093627;28;41231;-78
2021/05/15 09:38:42;;;;;;;1.53;0.47;;;;;;;22.30;39.02;98177.41;5110842;28;39372;-78
2021/05/15 09:41:09;;;;;;;1.40;0.70;;;;;;;22.76;38.41;98180.72;5109835;28;40737;-77
2021/05/15 09:43:37;;;;;;;0.60;0.47;;;;;;;23.44;35.82;98195.59;5112424;27;43395;-78
2021/05/15 09:46:05;;;;;;;0.73;0.50;;;;;;;23.71;35.79;98183.19;5110147;28;42110;-79
2021/05/15 09:48:35;;;;;;;1.80;0.70;;;;;;;23.68;34.83;98185.44;5093551;28;39616;-77
2021/05/15 09:51:14;;;;;;;0.60;0.60;;;;;;;23.94;34.29;98175.66;5094734;28;41675;-76
2021/05/15 09:53:43;;;;;;;2.00;0.57;;;;;;;25.23;33.52;98203.81;5109694;28;42655;-79
2021/05/15 09:56:11;;;;;;;0.50;0.50;;;;;;;25.54;32.47;98199.69;5110289;27;42082;-78
2021/05/15 09:58:41;;;;;;;1.63;0.70;;;;;;;24.79;32.64;98196.16;5111662;27;39912;-77
2021/05/15 10:01:08;;;;;;;1.80;0.73;;;;;;;24.45;32.98;98188.06;5110945;27;43350;-76
2021/05/15 10:03:36;;;;;;;10.93;4.43;;;;;;;23.97;34.67;98172.56;5110523;27;42805;-80
2021/05/15 10:06:06;;;;;;;7.22;3.08;;;;;;;23.45;35.52;98158.59;5107641;28;42355;-79
2021/05/15 10:08:34;;;;;;;6.07;2.17;;;;;;;23.76;34.75;98156.38;5110550;27;40467;-78
2021/05/15 10:11:04;;;;;;;1.50;1.00;;;;;;;24.23;33.18;98176.50;5093352;28;40912;-80
2021/05/15 10:13:32;;;;;;;2.57;1.40;;;;;;;25.53;31.90;98177.19;5110918;27;42677;-79
2021/05/15 10:16:01;;;;;;;0.70;0.60;;;;;;;25.52;31.63;98186.34;5108550;28;42385;-78
2021/05/15 10:18:29;;;;;;;2.40;0.60;;;;;;;24.78;32.83;98166.56;5093708;28;39930;-79
2021/05/15 10:20:57;;;;;;;0.93;0.60;;;;;;;24.06;34.29;98157.00;5110305;28;41883;-79
2021/05/15 10:23:25;;;;;;;1.47;0.60;;;;;;;23.48;35.23;98148.22;5109181;28;42827;-78
2021/05/15 10:26:02;;;;;;;0.80;0.70;;;;;;;22.91;35.30;98135.63;5091916;28;42412;-78
2021/05/15 10:28:31;;;;;;;0.70;0.60;;;;;;;22.72;36.64;98129.97;5110869;27;40061;-80
2021/05/15 10:31:09;;;;;;;0.43;0.40;;;;;;;22.76;36.39;98126.72;5091386;28;40046;-79
2021/05/15 10:33:37;;;;;;;1.10;0.60;;;;;;;22.87;36.64;98123.53;5091158;28;42229;-79
2021/05/15 10:36:06;;;;;;;0.97;0.60;;;;;;;22.85;36.39;98119.34;5105328;28;41985;-79
2021/05/15 10:38:36;;;;;;;2.70;0.93;;;;;;;22.89;35.50;98120.63;5111044;28;40041;-75
2021/05/15 10:41:13;;;;;;;1.20;0.60;;;;;;;23.36;34.72;98128.19;5122546;28;41552;-75
2021/05/15 10:43:42;;;;;;;0.83;0.60;;;;;;;24.57;34.01;98121.50;5125848;28;43407;-76
2021/05/15 10:46:31;;;;;;;1.50;0.80;;;;;;;25.59;32.85;98121.28;5125011;28;42271;-77
2021/05/15 10:49:04;;;;;;;0.50;0.50;;;;;;;26.50;31.94;98113.19;5127106;27;40443;-77
2021/05/15 10:51:37;;;;;;;0.73;0.70;;;;;;;27.67;30.06;98126.31;5125724;28;41868;-76
2021/05/15 10:54:07;;;;;;;0.63;0.50;;;;;;;28.33;29.42;98117.50;5115335;27;43367;-78
2021/05/15 10:56:34;;;;;;;0.57;0.57;;;;;;;28.42;28.91;98099.81;5111981;28;41154;-78
2021/05/15 10:59:05;;;;;;;0.73;0.60;;;;;;;28.87;27.64;98120.19;5111972;27;41104;-79
2021/05/15 11:01:45;;;;;;;1.00;0.53;;;;;;;28.94;26.86;98131.00;5113631;27;41366;-80
2021/05/15 11:04:24;;;;;;;0.87;0.70;;;;;;;28.92;27.73;98123.06;5113268;27;41250;-77
2021/05/15 11:07:08;;;;;;;0.60;0.50;;;;;;;28.95;28.97;98108.94;5109899;28;42967;-79
2021/05/15 11:09:37;;;;;;;0.97;0.70;;;;;;;29.12;27.18;98119.22;5109849;27;40638;-81
2021/05/15 11:12:11;;;;;;;0.60;0.60;;;;;;;29.44;27.01;98106.16;5090394;28;41653;-80
2021/05/15 11:14:39;;;;;;;0.77;0.67;;;;;;;29.82;27.17;98101.06;5109124;27;43243;-79
2021/05/15 11:17:11;;;;;;;0.63;0.53;;;;;;;29.42;26.81;98090.03;5107693;28;42889;-79
2021/05/15 11:19:39;;;;;;;1.00;0.60;;;;;;;28.81;27.14;98091.13;5091555;28;39961;-80
2021/05/15 11:22:07;;;;;;;1.00;0.60;;;;;;;28.84;25.96;98089.84;5091127;28;40459;-77
2021/05/15 11:24:36;;;;;;;0.60;0.43;;;;;;;28.17;28.55;98078.91;5091761;28;41461;-79
2021/05/15 11:27:14;;;;;;;0.70;0.50;;;;;;;27.43;28.73;98051.81;5090704;28;41307;-80
2021/05/15 11:29:42;;;;;;;0.40;0.40;;;;;;;26.76;28.74;98059.56;5109392;27;39943;-80
2021/05/15 11:32:12;;;;;;;0.57;0.57;;;;;;;25.88;30.20;98050.31;5107476;28;41561;-76
2021/05/15 11:34:40;;;;;;;1.03;0.70;;;;;;;25.03;32.68;98029.53;5109948;27;42610;-81
2021/05/15 11:37:08;;;;;;;1.97;1.00;;;;;;;24.20;34.95;98015.38;5092295;28;41586;-82
2021/05/15 11:39:36;;;;;;;2.43;0.83;;;;;;;23.43;37.83;97999.34;5108691;28;40399;-79